WetterOnline ( https://www.wetteronline.de )

Wetter aktuell Hunsrück (in 400m)

Aktuelles Wetter: Deuselbach (483m)

6-stündlich | Neueste Meldungen
Ortszeit Temperatur Wetter
Mi, 18.09. 14:00 13.7° C leicht bewölkt
Mi, 18.09. 8:00 5.6° C wolkenlos
Mi, 18.09. 2:00 8.0° C wolkenlos
Di, 17.09. 20:00 12.9° C wolkenlos
Di, 17.09. 14:00 16.3° C wolkenlos
Di, 17.09. 8:00 11.8° C bedeckt
Di, 17.09. 2:00 14.3° C bedeckt
Mo, 16.09. 20:00 17.6° C bewölkt
Ortszeit Temperatur Wetter
Mi, 18.09. 15:00 14.5° C wolkenlos
Mi, 18.09. 14:50 14.5° C wolkenlos
Mi, 18.09. 14:40 14.5° C wolkenlos
Mi, 18.09. 14:30 14.3° C wolkenlos
Mi, 18.09. 14:20 14.3° C wolkenlos
Mi, 18.09. 14:10 14.2° C fast wolkenlos
Mi, 18.09. 14:00 13.7° C leicht bewölkt
Mi, 18.09. 13:30 13.7° C leicht bewölkt
Mi, 18.09. 13:00 13.1° C leicht bewölkt
Mi, 18.09. 12:30 12.9° C wolkig
Mi, 18.09. 12:00 12.9° C leicht bewölkt
Ortszeit Relative Feuchte Sichtweite
Mi, 18.09. 14:00 49% 55 km
Mi, 18.09. 8:00 89% 29 km
Mi, 18.09. 2:00 76% 40 km
Di, 17.09. 20:00 62% 60 km
Di, 17.09. 14:00 54% 45 km
Di, 17.09. 8:00 85% 50 km
Di, 17.09. 2:00 88% 13 km
Mo, 16.09. 20:00 63% 65 km
Ortszeit Relative Feuchte Sichtweite
Mi, 18.09. 15:00 48% 55 km
Mi, 18.09. 14:50 48% -
Mi, 18.09. 14:40 48% -
Mi, 18.09. 14:30 49% 45 km
Mi, 18.09. 14:20 49% -
Mi, 18.09. 14:10 47% -
Mi, 18.09. 14:00 49% 55 km
Mi, 18.09. 13:30 48% 50 km
Mi, 18.09. 13:00 55% 55 km
Mi, 18.09. 12:30 55% >70 km
Mi, 18.09. 12:00 52% 55 km
Ortszeit Niederschlagsmenge Niederschlagsart
Mi, 18.09. 14:00 0.0 l/m2 in 6 Std. -
Mi, 18.09. 8:00 0.0 l/m2 in 12 Std. -
Mi, 18.09. 2:00 0.0 l/m2 in 6 Std. -
Di, 17.09. 20:00 0.0 l/m2 in 12 Std. -
Di, 17.09. 14:00 0.0 l/m2 in 6 Std. -
Di, 17.09. 8:00 0.1 l/m2 in 12 Std. -
Di, 17.09. 2:00 0.1 l/m2 in 6 Std. Regen
Mo, 16.09. 20:00 0.0 l/m2 in 12 Std. -
Ortszeit Niederschlagsmenge Niederschlagsart
Mi, 18.09. 15:00 0.0 l/m2 in 1 Std. -
Mi, 18.09. 14:50 keine Meldung -
Mi, 18.09. 14:40 keine Meldung -
Mi, 18.09. 14:30 0.0 l/m2 in 1 Std. -
Mi, 18.09. 14:20 keine Meldung -
Mi, 18.09. 14:10 keine Meldung -
Mi, 18.09. 14:00 0.0 l/m2 in 1 Std. -
Mi, 18.09. 13:30 0.0 l/m2 in 1 Std. -
Mi, 18.09. 13:00 0.0 l/m2 in 1 Std. -
Mi, 18.09. 12:30 0.0 l/m2 in 1 Std. -
Mi, 18.09. 12:00 0.0 l/m2 in 1 Std. -
Ortszeit Stärke Spitze Richtung
km/h Bft. km/h Grad Sektor
Mi, 18.09. 14:00 22 4 32 50° NO
Mi, 18.09. 8:00 6 1 19 110° O
Mi, 18.09. 2:00 9 2 30 50° NO
Di, 17.09. 20:00 7 2 32 340° N
Di, 17.09. 14:00 13 3 26 300° NW
Di, 17.09. 8:00 11 2 24 310° NW
Di, 17.09. 2:00 7 2 18 30° NO
Mo, 16.09. 20:00 7 2 25 300° NW
Ortszeit Stärke Spitze Richtung
km/h Bft. km/h Grad Sektor
Mi, 18.09. 15:00 22 4 32 40° NO
Mi, 18.09. 14:50 22 4 - 40° NO
Mi, 18.09. 14:40 18 3 - 50° NO
Mi, 18.09. 14:30 19 3 33 40° NO
Mi, 18.09. 14:20 19 3 - 40° NO
Mi, 18.09. 14:10 22 4 - 40° NO
Mi, 18.09. 14:00 22 4 32 50° NO
Mi, 18.09. 13:30 18 3 29 30° NO
Mi, 18.09. 13:00 22 4 31 40° NO
Mi, 18.09. 12:30 19 3 31 50° NO
Mi, 18.09. 12:00 18 3 32 40° NO
Ortszeit Untergrenze Bedeckung Gattung
total tief tief mittel hoch
Mi, 18.09. 14:00 8100 m 3/8 0/8 - - -
Mi, 18.09. 8:00 - 0/8 0/8 - - -
Mi, 18.09. 2:00 - 0/8 0/8 - - -
Di, 17.09. 20:00 8700 m 0/8 0/8 - - -
Di, 17.09. 14:00 - 0/8 0/8 - - -
Di, 17.09. 8:00 630 m 8/8 8/8 - - -
Di, 17.09. 2:00 300 m 8/8 8/8 - - -
Mo, 16.09. 20:00 2400 m 8/8 7/8 - - -
Ortszeit Bedeckungsgrad in Achtel und Wolkenuntergrenze
Mi, 18.09. 15:00 keine Wolken
Mi, 18.09. 14:50 keine Wolken
Mi, 18.09. 14:40 keine Wolken
Mi, 18.09. 14:30 keine Wolken
Mi, 18.09. 14:20 keine Wolken
Mi, 18.09. 14:10 1(8100m)
Mi, 18.09. 14:00 3(8100m)
Mi, 18.09. 13:30 4(8100m)
Mi, 18.09. 13:00 6(7800m)
Mi, 18.09. 12:30 3(1020m) 6(8100m)
Mi, 18.09. 12:00 4(960m) 5(8400m)
Ortszeit Luftdruck NN (hPa) Tendenz (hPa in 3 Std.)
Mi, 18.09. 14:00 1026 - 0,4
Mi, 18.09. 8:00 1027 + 0,6
Mi, 18.09. 2:00 1026 + 1,2
Di, 17.09. 20:00 1022 + 0,9
Di, 17.09. 14:00 1020 - 0,4
Di, 17.09. 8:00 1021 + 0,3
Di, 17.09. 2:00 1020 + 0,4
Mo, 16.09. 20:00 1019 + 0,1
Ortszeit Luftdruck NN (hPa) Tendenz (hPa in 3 Std.)
Mi, 18.09. 15:00 1025 - 0,7
Mi, 18.09. 14:50 1025 keine Meldung
Mi, 18.09. 14:40 1025 keine Meldung
Mi, 18.09. 14:30 1025 - 0,6
Mi, 18.09. 14:20 1025 keine Meldung
Mi, 18.09. 14:10 1026 keine Meldung
Mi, 18.09. 14:00 1026 - 0,4
Mi, 18.09. 13:30 1026 - 0,2
Mi, 18.09. 13:00 1026 + 0,1
Mi, 18.09. 12:30 1026 + 0,4
Mi, 18.09. 12:00 1026 + 0,6
Ortszeit Schneehöhe (cm)
Mi, 18.09. 14:00 -
Mi, 18.09. 8:00 -
Mi, 18.09. 2:00 -
Di, 17.09. 20:00 -
Di, 17.09. 14:00 -
Di, 17.09. 8:00 -
Di, 17.09. 2:00 -
Mo, 16.09. 20:00 -
Ortszeit Schneehöhe (cm)
Mi, 18.09. 15:00 -
Mi, 18.09. 14:50 -
Mi, 18.09. 14:40 -
Mi, 18.09. 14:30 -
Mi, 18.09. 14:20 -
Mi, 18.09. 14:10 -
Mi, 18.09. 14:00 -
Mi, 18.09. 13:30 -
Mi, 18.09. 13:00 -
Mi, 18.09. 12:30 -
Mi, 18.09. 12:00 -
Link zu dieser Seite / Seite empfehlen

Das Wetter in ...